createdAt,value
2023-01-06T00:04:44.711Z,10.37
2023-01-06T00:09:47.169Z,7.90
2023-01-06T00:14:49.606Z,10.40
2023-01-06T00:19:52.053Z,9.90
2023-01-06T00:24:54.496Z,9.03
2023-01-06T00:29:56.903Z,7.63
2023-01-06T00:34:59.422Z,8.60
2023-01-06T00:40:01.992Z,8.23
2023-01-06T00:45:04.729Z,8.07
2023-01-06T00:50:07.821Z,7.97
2023-01-06T00:55:10.258Z,9.37
2023-01-06T01:00:13.334Z,8.50
2023-01-06T01:05:16.168Z,10.63
2023-01-06T01:10:19.790Z,8.57
2023-01-06T01:15:22.568Z,14.50
2023-01-06T01:20:24.984Z,6.30
2023-01-06T01:25:27.461Z,7.67
2023-01-06T01:30:29.973Z,8.27
2023-01-06T01:35:32.454Z,8.87
2023-01-06T01:40:34.851Z,8.63
2023-01-06T01:45:37.308Z,10.10
2023-01-06T01:50:47.717Z,9.40
2023-01-06T01:55:53.103Z,9.20
2023-01-06T02:00:55.526Z,9.73
2023-01-06T02:06:06.848Z,10.47
2023-01-06T02:11:09.611Z,8.77
2023-01-06T02:16:36.040Z,11.40
2023-01-06T02:21:38.508Z,12.50
2023-01-06T02:27:04.429Z,15.50
2023-01-06T02:32:17.176Z,40.63
2023-01-06T02:37:38.446Z,15.40
2023-01-06T02:43:03.848Z,12.03
2023-01-06T02:48:29.964Z,8.60
2023-01-06T02:53:43.308Z,7.50
2023-01-06T02:58:53.588Z,29.03
2023-01-06T03:03:59.638Z,24.97
2023-01-06T03:09:05.352Z,19.93
2023-01-06T03:14:45.603Z,23.03
2023-01-06T03:19:48.865Z,31.83
2023-01-06T03:24:53.566Z,32.67
2023-01-06T03:29:59.051Z,32.67
2023-01-06T03:35:28.263Z,23.53
2023-01-06T03:40:38.315Z,28.47
2023-01-06T03:46:16.142Z,16.23
2023-01-06T03:51:47.089Z,21.67
2023-01-06T03:56:58.266Z,21.87
2023-01-06T04:02:01.964Z,19.47
2023-01-06T04:07:05.947Z,16.57
2023-01-06T04:12:48.084Z,14.60
2023-01-06T04:17:54.751Z,13.83
2023-01-06T04:22:58.242Z,15.03
2023-01-06T04:28:02.663Z,19.90
2023-01-06T04:33:05.465Z,15.17
2023-01-06T04:38:07.964Z,14.50
2023-01-06T04:43:16.085Z,11.50
2023-01-06T04:48:18.730Z,13.90
2023-01-06T04:53:21.186Z,21.63
2023-01-06T04:58:23.538Z,20.33
2023-01-06T05:03:25.998Z,23.33
2023-01-06T05:08:29.484Z,21.70
2023-01-06T05:13:32.763Z,24.27
2023-01-06T05:18:35.812Z,23.87
2023-01-06T05:23:39.468Z,26.47
2023-01-06T05:28:41.890Z,24.07
2023-01-06T05:33:44.396Z,22.87
2023-01-06T05:38:52.419Z,18.23
2023-01-06T05:43:54.943Z,21.40
2023-01-06T05:48:59.179Z,20.17
2023-01-06T05:54:01.583Z,25.10
2023-01-06T05:59:04.196Z,13.70
2023-01-06T06:04:06.710Z,18.80
2023-01-06T06:09:09.269Z,25.00
2023-01-06T06:14:11.789Z,20.80
2023-01-06T06:19:14.761Z,13.63
2023-01-06T06:24:17.183Z,20.17
2023-01-06T06:29:19.608Z,20.93
2023-01-06T06:34:21.958Z,20.50
2023-01-06T06:39:24.351Z,27.07
2023-01-06T06:44:26.843Z,25.50
2023-01-06T06:49:29.239Z,25.13
2023-01-06T06:54:31.695Z,26.70
2023-01-06T06:59:34.129Z,21.87
2023-01-06T07:04:36.622Z,26.07
2023-01-06T07:09:39.462Z,22.13
2023-01-06T07:14:41.863Z,21.87
2023-01-06T07:19:44.263Z,26.30
2023-01-06T07:24:47.083Z,60.23
2023-01-06T07:29:49.537Z,72.00
2023-01-06T07:34:51.931Z,33.87
2023-01-06T07:39:54.348Z,196.03
2023-01-06T07:44:56.716Z,131.67
2023-01-06T07:49:59.106Z,110.17
2023-01-06T07:55:01.546Z,34.87
2023-01-06T08:00:04.626Z,50.00
2023-01-06T08:05:14.493Z,66.47
2023-01-06T08:10:17.406Z,81.80
2023-01-06T08:15:19.789Z,68.23
2023-01-06T08:20:22.493Z,100.93
2023-01-06T08:25:25.013Z,57.77
2023-01-06T08:30:27.889Z,80.23
2023-01-06T08:35:30.243Z,37.40
2023-01-06T08:40:32.659Z,28.67
2023-01-06T08:45:39.606Z,62.37
2023-01-06T08:50:42.624Z,20.27
2023-01-06T08:55:45.056Z,23.27
2023-01-06T09:00:47.451Z,40.70
2023-01-06T09:05:57.265Z,36.03
2023-01-06T09:11:06.008Z,60.07
2023-01-06T09:16:10.024Z,52.37
2023-01-06T09:21:12.514Z,47.37
2023-01-06T09:26:16.415Z,43.03
2023-01-06T09:31:19.005Z,28.30
2023-01-06T09:36:22.200Z,30.63
2023-01-06T09:42:04.797Z,32.40
2023-01-06T09:47:12.102Z,35.20
2023-01-06T09:52:23.263Z,34.00
2023-01-06T09:57:34.489Z,22.23
2023-01-06T10:02:39.735Z,26.30
2023-01-06T10:08:07.463Z,29.80
2023-01-06T10:13:31.889Z,29.63
2023-01-06T10:18:58.420Z,29.50
2023-01-06T10:24:12.876Z,26.47
2023-01-06T10:29:18.557Z,23.13
2023-01-06T10:34:26.751Z,24.83
2023-01-06T10:39:30.278Z,29.60
2023-01-06T10:44:32.763Z,32.37
2023-01-06T10:49:35.559Z,25.67
2023-01-06T10:54:39.821Z,27.90
2023-01-06T11:00:22.330Z,22.23
2023-01-06T11:05:26.715Z,24.40
2023-01-06T11:10:53.811Z,20.43
2023-01-06T11:15:57.451Z,22.97
2023-01-06T11:21:16.289Z,21.43
2023-01-06T11:26:23.696Z,25.00
2023-01-06T11:31:28.292Z,24.57
2023-01-06T11:36:33.524Z,25.33
2023-01-06T11:41:38.701Z,33.77
2023-01-06T11:46:49.157Z,25.00
2023-01-06T11:51:51.978Z,41.77
2023-01-06T11:56:59.287Z,30.27
2023-01-06T12:02:01.795Z,86.77
2023-01-06T12:07:40.312Z,39.53
2023-01-06T12:12:42.940Z,34.90
2023-01-06T12:18:32.385Z,47.10
2023-01-06T12:23:41.060Z,45.67
2023-01-06T12:28:47.395Z,38.00
2023-01-06T12:34:01.879Z,60.70
2023-01-06T12:39:19.152Z,46.33
2023-01-06T12:44:39.066Z,61.30
2023-01-06T12:50:09.837Z,58.20
2023-01-06T12:55:19.066Z,90.67
2023-01-06T13:00:46.430Z,276.23
2023-01-06T13:06:21.449Z,46.63
2023-01-06T13:12:03.009Z,83.47
2023-01-06T13:17:14.627Z,86.57
2023-01-06T13:22:36.746Z,52.70
2023-01-06T13:28:08.447Z,73.93
2023-01-06T13:33:52.246Z,90.10
2023-01-06T13:39:11.012Z,57.83
2023-01-06T13:44:20.080Z,159.10
2023-01-06T13:49:22.493Z,89.00
2023-01-06T13:54:40.146Z,116.20
2023-01-06T13:59:50.247Z,86.77
2023-01-06T14:04:53.531Z,110.77
2023-01-06T14:09:56.008Z,96.73
2023-01-06T14:15:05.372Z,65.03
2023-01-06T14:20:33.325Z,84.00
2023-01-06T14:25:42.664Z,81.87
2023-01-06T14:30:45.682Z,81.90
2023-01-06T14:35:48.984Z,75.33
2023-01-06T14:41:07.881Z,56.10
2023-01-06T14:46:21.505Z,56.37
2023-01-06T14:51:25.290Z,65.73
2023-01-06T14:56:30.159Z,80.40
2023-01-06T15:01:37.502Z,57.37
2023-01-06T15:06:40.043Z,65.33
2023-01-06T15:11:42.862Z,76.17
2023-01-06T15:16:45.419Z,82.27
2023-01-06T15:21:50.239Z,64.50
2023-01-06T15:26:54.782Z,73.80
2023-01-06T15:31:57.402Z,60.37
2023-01-06T15:37:01.717Z,49.00
2023-01-06T15:42:06.752Z,79.83
2023-01-06T15:47:13.027Z,124.93
2023-01-06T15:52:27.841Z,99.70
2023-01-06T15:57:40.332Z,87.17
2023-01-06T16:02:46.751Z,93.13
2023-01-06T16:07:49.123Z,89.83
2023-01-06T16:13:16.031Z,238.37
2023-01-06T16:18:27.429Z,135.30
2023-01-06T16:23:34.181Z,192.77
2023-01-06T16:28:42.996Z,120.43
2023-01-06T16:33:46.001Z,123.77
2023-01-06T16:38:48.490Z,158.27
2023-01-06T16:43:50.890Z,152.40
2023-01-06T16:48:57.325Z,234.37
2023-01-06T16:53:59.926Z,297.33
2023-01-06T16:59:02.480Z,291.63
2023-01-06T17:04:05.188Z,243.10
2023-01-06T17:09:20.938Z,163.47
2023-01-06T17:14:23.764Z,115.50
2023-01-06T17:19:32.444Z,110.80
2023-01-06T17:24:35.758Z,76.77
2023-01-06T17:29:38.352Z,96.43
2023-01-06T17:34:40.858Z,121.47
2023-01-06T17:39:45.839Z,89.40
2023-01-06T17:44:51.477Z,100.37
2023-01-06T17:50:01.780Z,84.10
2023-01-06T17:55:25.825Z,77.43
2023-01-06T18:00:33.355Z,90.93
2023-01-06T18:05:35.829Z,78.63
2023-01-06T18:10:43.103Z,67.57
2023-01-06T18:15:48.058Z,60.63
2023-01-06T18:21:12.585Z,53.37
2023-01-06T18:26:37.812Z,67.00
2023-01-06T18:31:41.020Z,71.53
2023-01-06T18:36:48.905Z,80.70
2023-01-06T18:42:25.791Z,82.97
2023-01-06T18:47:30.696Z,100.70
2023-01-06T18:52:46.231Z,64.00
2023-01-06T18:57:57.643Z,68.27
2023-01-06T19:03:37.485Z,74.40
2023-01-06T19:08:41.663Z,212.93
2023-01-06T19:13:46.117Z,95.10
2023-01-06T19:18:48.553Z,140.67
2023-01-06T19:23:51.063Z,78.93
2023-01-06T19:29:01.884Z,65.17
2023-01-06T19:34:06.322Z,41.00
2023-01-06T19:39:22.107Z,55.10
2023-01-06T19:44:32.254Z,82.03
2023-01-06T19:49:40.583Z,64.07
2023-01-06T19:54:43.122Z,59.07
2023-01-06T19:59:45.519Z,98.37
2023-01-06T20:04:47.943Z,56.33
2023-01-06T20:09:50.429Z,56.53
2023-01-06T20:14:52.857Z,60.47
2023-01-06T20:19:55.234Z,62.47
2023-01-06T20:24:57.986Z,41.87
2023-01-06T20:30:00.953Z,56.13
2023-01-06T20:35:03.709Z,55.93
2023-01-06T20:40:07.202Z,86.80
2023-01-06T20:45:10.256Z,81.50
2023-01-06T20:50:14.607Z,79.73
2023-01-06T20:55:17.033Z,79.43
2023-01-06T21:00:19.564Z,85.83
2023-01-06T21:05:22.002Z,53.37
2023-01-06T21:10:24.366Z,43.87
2023-01-06T21:15:26.799Z,39.80
2023-01-06T21:20:29.667Z,35.97
2023-01-06T21:25:32.070Z,43.33
2023-01-06T21:30:34.956Z,39.30
2023-01-06T21:35:37.448Z,68.30
2023-01-06T21:40:39.844Z,49.47
2023-01-06T21:45:44.320Z,33.67
2023-01-06T21:50:46.813Z,41.60
2023-01-06T21:55:49.466Z,37.13
2023-01-06T22:00:51.891Z,34.17
2023-01-06T22:05:54.609Z,23.27
2023-01-06T22:10:57.158Z,20.40
2023-01-06T22:15:59.933Z,20.17
2023-01-06T22:21:03.132Z,18.93
2023-01-06T22:26:06.142Z,19.60
2023-01-06T22:31:09.076Z,62.27
2023-01-06T22:36:11.708Z,49.77
2023-01-06T22:41:14.104Z,54.07
2023-01-06T22:46:16.870Z,54.27
2023-01-06T22:51:19.321Z,49.23
2023-01-06T22:56:21.769Z,98.23
2023-01-06T23:01:24.646Z,113.87
2023-01-06T23:06:27.202Z,65.50
2023-01-06T23:11:31.440Z,51.13
2023-01-06T23:16:36.488Z,38.60
2023-01-06T23:21:40.218Z,37.17
2023-01-06T23:26:45.165Z,32.93
2023-01-06T23:31:47.791Z,30.67
2023-01-06T23:36:50.438Z,28.73
2023-01-06T23:41:54.646Z,28.93
2023-01-06T23:46:57.101Z,25.53
2023-01-06T23:51:59.605Z,31.73
2023-01-06T23:57:02.095Z,26.63
